createdAt,value
2022-09-11T00:01:33.308Z,12.97
2022-09-11T00:04:00.367Z,13.90
2022-09-11T00:06:30.151Z,14.20
2022-09-11T00:09:04.381Z,14.13
2022-09-11T00:11:35.131Z,14.57
2022-09-11T00:14:02.165Z,15.03
2022-09-11T00:16:35.520Z,14.47
2022-09-11T00:19:08.768Z,14.03
2022-09-11T00:21:36.454Z,16.00
2022-09-11T00:24:03.925Z,13.63
2022-09-11T00:26:31.362Z,16.10
2022-09-11T00:28:58.500Z,14.57
2022-09-11T00:31:28.186Z,14.23
2022-09-11T00:33:55.673Z,15.43
2022-09-11T00:36:25.897Z,15.20
2022-09-11T00:38:54.098Z,14.50
2022-09-11T00:41:32.533Z,14.93
2022-09-11T00:44:07.383Z,13.47
2022-09-11T00:46:38.202Z,14.80
2022-09-11T00:49:24.796Z,14.13
2022-09-11T00:51:56.152Z,14.53
2022-09-11T00:54:41.322Z,14.97
2022-09-11T00:57:09.638Z,14.57
2022-09-11T00:59:41.338Z,15.63
2022-09-11T01:02:13.638Z,16.97
2022-09-11T01:04:40.636Z,15.20
2022-09-11T01:07:07.332Z,14.50
2022-09-11T01:09:34.348Z,15.03
2022-09-11T01:12:14.801Z,17.80
2022-09-11T01:14:48.005Z,15.23
2022-09-11T01:17:32.305Z,13.37
2022-09-11T01:20:36.555Z,12.90
2022-09-11T01:23:22.785Z,14.17
2022-09-11T01:26:32.348Z,13.67
2022-09-11T01:29:22.436Z,17.40
2022-09-11T01:32:04.577Z,15.07
2022-09-11T01:34:38.961Z,17.83
2022-09-11T01:37:12.592Z,17.97
2022-09-11T01:39:44.933Z,17.20
2022-09-11T01:42:19.269Z,15.17
2022-09-11T01:44:55.779Z,14.80
2022-09-11T01:47:24.990Z,15.40
2022-09-11T01:50:03.585Z,16.00
2022-09-11T01:52:36.902Z,17.07
2022-09-11T01:55:12.586Z,15.10
2022-09-11T01:57:46.462Z,14.13
2022-09-11T02:00:14.863Z,15.30
2022-09-11T02:03:03.792Z,13.57
2022-09-11T02:05:38.498Z,12.47
2022-09-11T02:08:11.370Z,14.00
2022-09-11T02:10:47.019Z,17.37
2022-09-11T02:13:29.709Z,17.03
2022-09-11T02:16:05.471Z,17.10
2022-09-11T02:18:53.776Z,16.77
2022-09-11T02:21:22.053Z,18.07
2022-09-11T02:23:49.516Z,15.30
2022-09-11T02:26:18.723Z,15.40
2022-09-11T02:28:45.508Z,15.00
2022-09-11T02:31:13.167Z,15.07
2022-09-11T02:33:39.848Z,17.17
2022-09-11T02:36:35.653Z,15.93
2022-09-11T02:39:20.462Z,15.20
2022-09-11T02:42:03.287Z,16.77
2022-09-11T02:44:32.756Z,16.07
2022-09-11T02:47:15.412Z,16.90
2022-09-11T02:50:01.073Z,14.70
2022-09-11T02:53:16.482Z,14.43
2022-09-11T02:56:00.849Z,15.17
2022-09-11T02:58:42.740Z,14.33
2022-09-11T03:01:10.418Z,16.40
2022-09-11T03:03:41.141Z,14.23
2022-09-11T03:06:13.766Z,14.07
2022-09-11T03:08:41.071Z,15.13
2022-09-11T03:11:11.512Z,13.97
2022-09-11T03:13:38.410Z,17.60
2022-09-11T03:16:05.799Z,21.30
2022-09-11T03:18:33.070Z,16.30
2022-09-11T03:21:01.071Z,15.17
2022-09-11T03:23:28.093Z,16.53
2022-09-11T03:25:55.487Z,16.17
2022-09-11T03:28:23.382Z,16.90
2022-09-11T03:30:52.805Z,18.73
2022-09-11T03:33:19.769Z,15.00
2022-09-11T03:35:47.144Z,15.57
2022-09-11T03:38:15.846Z,17.53
2022-09-11T03:40:43.844Z,17.50
2022-09-11T03:43:12.279Z,21.87
2022-09-11T03:45:39.541Z,20.63
2022-09-11T03:48:08.423Z,18.03
2022-09-11T03:50:35.430Z,19.83
2022-09-11T03:53:02.071Z,17.03
2022-09-11T03:55:29.088Z,15.83
2022-09-11T03:57:55.725Z,16.67
2022-09-11T04:00:25.057Z,16.57
2022-09-11T04:02:58.191Z,16.67
2022-09-11T04:05:44.099Z,16.40
2022-09-11T04:08:13.327Z,17.47
2022-09-11T04:10:43.230Z,16.97
2022-09-11T04:13:10.922Z,15.67
2022-09-11T04:15:37.994Z,20.73
2022-09-11T04:18:08.486Z,16.00
2022-09-11T04:20:39.694Z,16.07
2022-09-11T04:23:06.470Z,15.97
2022-09-11T04:25:33.413Z,17.20
2022-09-11T04:28:02.680Z,15.63
2022-09-11T04:30:29.464Z,16.57
2022-09-11T04:32:56.338Z,16.20
2022-09-11T04:35:24.066Z,15.70
2022-09-11T04:37:55.557Z,17.17
2022-09-11T04:40:23.134Z,18.53
2022-09-11T04:42:49.781Z,18.47
2022-09-11T04:45:16.810Z,20.37
2022-09-11T04:47:44.320Z,18.83
2022-09-11T04:50:12.971Z,20.40
2022-09-11T04:52:40.925Z,16.77
2022-09-11T04:55:08.948Z,21.93
2022-09-11T04:57:35.610Z,20.37
2022-09-11T05:00:03.934Z,18.70
2022-09-11T05:02:30.611Z,20.30
2022-09-11T05:04:58.755Z,18.67
2022-09-11T05:07:25.933Z,19.23
2022-09-11T05:09:54.885Z,21.57
2022-09-11T05:12:22.568Z,19.77
2022-09-11T05:14:49.470Z,17.83
2022-09-11T05:17:16.909Z,20.60
2022-09-11T05:19:44.238Z,20.17
2022-09-11T05:22:11.194Z,19.03
2022-09-11T05:24:43.258Z,19.33
2022-09-11T05:27:10.249Z,18.33
2022-09-11T05:29:39.082Z,19.07
2022-09-11T05:32:12.113Z,18.20
2022-09-11T05:34:38.917Z,18.70
2022-09-11T05:37:08.041Z,18.13
2022-09-11T05:39:40.648Z,18.87
2022-09-11T05:42:08.836Z,17.63
2022-09-11T05:44:38.896Z,15.93
2022-09-11T05:47:06.365Z,16.90
2022-09-11T05:49:33.090Z,17.60
2022-09-11T05:52:01.590Z,19.13
2022-09-11T05:54:29.964Z,20.40
2022-09-11T05:56:59.106Z,19.30
2022-09-11T05:59:27.059Z,16.20
2022-09-11T06:01:54.170Z,16.73
2022-09-11T06:04:32.432Z,16.43
2022-09-11T06:06:59.898Z,18.73
2022-09-11T06:09:28.616Z,20.83
2022-09-11T06:11:55.402Z,19.77
2022-09-11T06:14:22.250Z,18.67
2022-09-11T06:16:50.552Z,17.93
2022-09-11T06:19:17.861Z,21.60
2022-09-11T06:21:45.904Z,22.30
2022-09-11T06:24:25.147Z,22.63
2022-09-11T06:26:51.911Z,20.60
2022-09-11T06:29:19.719Z,22.43
2022-09-11T06:31:51.465Z,28.43
2022-09-11T06:34:21.997Z,28.07
2022-09-11T06:36:52.103Z,29.47
2022-09-11T06:39:20.521Z,32.23
2022-09-11T06:41:47.438Z,37.57
2022-09-11T06:44:15.335Z,33.30
2022-09-11T06:46:42.189Z,36.90
2022-09-11T06:49:10.761Z,33.07
2022-09-11T06:51:57.351Z,32.27
2022-09-11T06:54:25.184Z,34.93
2022-09-11T06:56:53.014Z,41.47
2022-09-11T06:59:23.810Z,38.23
2022-09-11T07:01:51.709Z,39.70
2022-09-11T07:04:18.677Z,36.93
2022-09-11T07:06:48.153Z,38.03
2022-09-11T07:09:15.879Z,35.23
2022-09-11T07:11:48.436Z,34.40
2022-09-11T07:14:21.201Z,37.00
2022-09-11T07:16:54.955Z,33.87
2022-09-11T07:19:25.442Z,37.07
2022-09-11T07:21:52.222Z,32.73
2022-09-11T07:24:20.549Z,37.00
2022-09-11T07:26:47.805Z,31.73
2022-09-11T07:29:20.731Z,33.17
2022-09-11T07:31:48.114Z,32.90
2022-09-11T07:34:16.005Z,30.63
2022-09-11T07:36:44.561Z,30.77
2022-09-11T07:39:12.133Z,26.00
2022-09-11T07:41:48.905Z,26.43
2022-09-11T07:44:23.790Z,29.03
2022-09-11T07:46:51.247Z,28.50
2022-09-11T07:49:18.365Z,27.20
2022-09-11T07:51:46.014Z,27.53
2022-09-11T07:54:15.977Z,29.07
2022-09-11T07:56:43.546Z,28.23
2022-09-11T07:59:11.718Z,28.63
2022-09-11T08:01:43.030Z,29.43
2022-09-11T08:04:14.227Z,29.93
2022-09-11T08:06:42.054Z,22.97
2022-09-11T08:09:15.937Z,25.30
2022-09-11T08:11:48.991Z,25.73
2022-09-11T08:14:17.918Z,27.27
2022-09-11T08:16:48.182Z,28.73
2022-09-11T08:19:18.545Z,26.67
2022-09-11T08:21:49.158Z,26.83
2022-09-11T08:24:20.473Z,26.87
2022-09-11T08:26:50.605Z,27.00
2022-09-11T08:29:18.645Z,28.87
2022-09-11T08:31:46.894Z,28.00
2022-09-11T08:34:14.176Z,26.50
2022-09-11T08:36:40.972Z,25.38
2022-09-11T08:39:09.716Z,26.00
2022-09-11T08:41:48.230Z,23.17
2022-09-11T08:44:29.220Z,24.42
2022-09-11T08:47:19.171Z,19.75
2022-09-11T08:50:02.678Z,19.90
2022-09-11T08:52:33.018Z,22.98
2022-09-11T08:55:00.761Z,22.33
2022-09-11T08:57:52.613Z,21.67
2022-09-11T09:00:26.986Z,21.73
2022-09-11T09:03:22.577Z,19.83
2022-09-11T09:06:14.024Z,18.20
2022-09-11T09:09:09.001Z,19.63
2022-09-11T09:11:46.268Z,18.85
2022-09-11T09:14:43.326Z,18.42
2022-09-11T09:17:19.515Z,16.88
2022-09-11T09:20:05.841Z,20.45
2022-09-11T09:22:45.244Z,16.10
2022-09-11T09:25:17.782Z,18.13
2022-09-11T09:28:03.690Z,17.42
2022-09-11T09:30:42.586Z,18.63
2022-09-11T09:33:18.381Z,18.50
2022-09-11T09:35:45.501Z,18.23
2022-09-11T09:38:26.868Z,17.50
2022-09-11T09:41:21.298Z,18.48
2022-09-11T09:44:17.717Z,16.90
2022-09-11T09:46:51.218Z,15.02
2022-09-11T09:49:24.679Z,17.17
2022-09-11T09:51:54.404Z,18.27
2022-09-11T09:54:24.113Z,20.20
2022-09-11T09:57:02.587Z,18.45
2022-09-11T09:59:47.552Z,19.00
2022-09-11T10:02:40.548Z,18.35
2022-09-11T10:05:18.143Z,17.98
2022-09-11T10:07:57.369Z,19.65
2022-09-11T10:10:34.800Z,17.25
2022-09-11T10:13:19.389Z,21.15
2022-09-11T10:15:50.015Z,18.08
2022-09-11T10:18:29.133Z,18.55
2022-09-11T10:21:24.131Z,16.45
2022-09-11T10:24:02.361Z,20.15
2022-09-11T10:26:34.985Z,22.48
2022-09-11T10:29:12.069Z,22.40
2022-09-11T10:31:41.160Z,19.85
2022-09-11T10:34:16.140Z,21.27
2022-09-11T10:37:08.971Z,19.77
2022-09-11T10:39:36.905Z,21.30
2022-09-11T10:42:29.562Z,16.42
2022-09-11T10:45:10.324Z,17.52
2022-09-11T10:47:37.446Z,21.77
2022-09-11T10:50:16.905Z,18.50
2022-09-11T10:53:11.299Z,16.52
2022-09-11T10:55:42.445Z,15.43
2022-09-11T10:58:18.450Z,15.85
2022-09-11T11:00:45.325Z,15.02
2022-09-11T11:03:17.755Z,16.75
2022-09-11T11:05:59.528Z,16.20
2022-09-11T11:08:46.316Z,15.95
2022-09-11T11:11:40.452Z,16.63
2022-09-11T11:14:37.793Z,14.65
2022-09-11T11:17:19.779Z,19.10
2022-09-11T11:20:10.794Z,18.48
2022-09-11T11:22:49.717Z,16.50
2022-09-11T11:25:24.173Z,18.92
2022-09-11T11:28:11.773Z,15.43
2022-09-11T11:31:04.443Z,17.65
2022-09-11T11:34:16.929Z,14.68
2022-09-11T11:36:55.960Z,16.13
2022-09-11T11:39:25.272Z,17.15
2022-09-11T11:42:14.580Z,16.35
2022-09-11T11:44:48.560Z,15.60
2022-09-11T11:47:17.947Z,18.27
2022-09-11T11:49:55.016Z,17.85
2022-09-11T11:52:40.934Z,20.50
2022-09-11T11:55:26.362Z,20.27
2022-09-11T11:58:05.795Z,19.85
2022-09-11T12:00:41.953Z,18.58
2022-09-11T12:03:38.613Z,19.77
2022-09-11T12:06:08.043Z,20.67
2022-09-11T12:08:43.963Z,21.70
2022-09-11T12:11:13.979Z,21.40
2022-09-11T12:13:47.520Z,17.98
2022-09-11T12:16:21.074Z,21.92
2022-09-11T12:19:14.997Z,20.52
2022-09-11T12:22:02.537Z,19.10
2022-09-11T12:24:50.402Z,19.88
2022-09-11T12:27:34.840Z,16.90
2022-09-11T12:30:16.833Z,16.55
2022-09-11T12:32:51.619Z,18.67
2022-09-11T12:35:39.689Z,20.15
2022-09-11T12:38:06.553Z,15.95
2022-09-11T12:40:49.908Z,17.10
2022-09-11T12:43:46.274Z,15.13
2022-09-11T12:46:22.164Z,18.08
2022-09-11T12:49:17.817Z,13.07
2022-09-11T12:51:49.826Z,13.35
2022-09-11T12:54:26.949Z,13.30
2022-09-11T12:57:02.082Z,14.07
2022-09-11T12:59:38.829Z,15.50
2022-09-11T13:02:37.914Z,14.57
2022-09-11T13:05:16.175Z,14.23
2022-09-11T13:07:46.941Z,12.65
2022-09-11T13:10:35.323Z,15.65
2022-09-11T13:13:37.455Z,14.35
2022-09-11T13:16:26.239Z,13.23
2022-09-11T13:19:13.487Z,14.52
2022-09-11T13:21:41.843Z,14.93
2022-09-11T13:24:26.285Z,14.38
2022-09-11T13:27:02.152Z,14.70
2022-09-11T13:29:31.444Z,15.85
2022-09-11T13:32:00.577Z,15.05
2022-09-11T13:34:29.462Z,13.85
2022-09-11T13:36:57.756Z,14.20
2022-09-11T13:39:26.612Z,15.55
2022-09-11T13:42:05.013Z,13.65
2022-09-11T13:44:44.097Z,14.75
2022-09-11T13:47:22.656Z,13.07
2022-09-11T13:49:53.596Z,16.58
2022-09-11T13:52:22.811Z,13.60
2022-09-11T13:54:52.514Z,15.15
2022-09-11T13:57:31.376Z,16.25
2022-09-11T14:00:00.211Z,13.13
2022-09-11T14:02:40.695Z,14.82
2022-09-11T14:05:12.481Z,12.38
2022-09-11T14:07:47.478Z,13.68
2022-09-11T14:10:35.024Z,11.75
2022-09-11T14:13:20.566Z,12.27
2022-09-11T14:15:47.488Z,9.73
2022-09-11T14:18:40.725Z,13.02
2022-09-11T14:21:22.764Z,11.10
2022-09-11T14:23:55.026Z,11.82
2022-09-11T14:26:24.519Z,10.35
2022-09-11T14:29:06.840Z,9.90
2022-09-11T14:31:36.990Z,11.30
2022-09-11T14:34:11.375Z,10.63
2022-09-11T14:36:44.259Z,12.02
2022-09-11T14:39:40.375Z,10.60
2022-09-11T14:42:10.272Z,10.73
2022-09-11T14:44:39.320Z,12.60
2022-09-11T14:47:06.218Z,11.30
2022-09-11T14:49:33.064Z,12.60
2022-09-11T14:52:00.621Z,12.80
2022-09-11T14:54:31.208Z,13.23
2022-09-11T14:57:00.792Z,11.15
2022-09-11T14:59:29.191Z,11.18
2022-09-11T15:01:58.495Z,10.25
2022-09-11T15:04:25.341Z,11.50
2022-09-11T15:06:55.324Z,11.45
2022-09-11T15:09:23.779Z,10.63
2022-09-11T15:11:52.150Z,9.95
2022-09-11T15:14:38.065Z,11.45
2022-09-11T15:17:09.384Z,10.23
2022-09-11T15:19:37.714Z,10.95
2022-09-11T15:22:06.041Z,10.95
2022-09-11T15:24:32.969Z,11.68
2022-09-11T15:26:59.844Z,9.60
2022-09-11T15:29:31.194Z,8.57
2022-09-11T15:32:00.970Z,10.07
2022-09-11T15:34:31.710Z,9.00
2022-09-11T15:36:58.474Z,8.57
2022-09-11T15:39:25.702Z,8.82
2022-09-11T15:41:54.370Z,8.20
2022-09-11T15:44:24.133Z,9.32
2022-09-11T15:46:52.725Z,8.38
2022-09-11T15:49:21.730Z,9.60
2022-09-11T15:51:49.410Z,8.32
2022-09-11T15:54:16.211Z,9.02
2022-09-11T15:56:43.776Z,8.68
2022-09-11T15:59:12.337Z,8.00
2022-09-11T16:01:39.404Z,8.77
2022-09-11T16:04:12.674Z,8.23
2022-09-11T16:06:41.716Z,9.43
2022-09-11T16:09:13.338Z,9.23
2022-09-11T16:11:40.832Z,8.35
2022-09-11T16:14:08.262Z,9.48
2022-09-11T16:16:35.320Z,9.25
2022-09-11T16:19:01.938Z,9.50
2022-09-11T16:21:28.913Z,9.45
2022-09-11T16:24:00.759Z,11.00
2022-09-11T16:26:31.685Z,9.02
2022-09-11T16:28:58.818Z,10.77
2022-09-11T16:31:26.036Z,10.02
2022-09-11T16:33:55.063Z,9.05
2022-09-11T16:36:22.508Z,10.05
2022-09-11T16:38:50.489Z,9.77
2022-09-11T16:41:19.994Z,9.05
2022-09-11T16:43:49.082Z,9.85
2022-09-11T16:46:22.200Z,9.30
2022-09-11T16:48:54.004Z,9.88
2022-09-11T16:51:23.470Z,9.02
2022-09-11T16:53:50.398Z,9.15
2022-09-11T16:56:20.493Z,8.40
2022-09-11T16:58:47.838Z,7.72
2022-09-11T17:01:20.223Z,10.45
2022-09-11T17:03:49.611Z,7.60
2022-09-11T17:06:19.333Z,9.50
2022-09-11T17:08:46.236Z,8.75
2022-09-11T17:11:14.902Z,8.15
2022-09-11T17:13:46.096Z,9.15
2022-09-11T17:16:16.749Z,8.07
2022-09-11T17:18:53.316Z,7.15
2022-09-11T17:21:24.106Z,7.10
2022-09-11T17:23:52.686Z,8.15
2022-09-11T17:26:19.822Z,6.93
2022-09-11T17:28:47.833Z,8.82
2022-09-11T17:31:16.827Z,7.43
2022-09-11T17:33:45.310Z,7.47
2022-09-11T17:36:13.996Z,8.43
2022-09-11T17:38:41.363Z,7.37
2022-09-11T17:41:08.919Z,8.43
2022-09-11T17:43:37.416Z,7.87
2022-09-11T17:46:07.018Z,8.67
2022-09-11T17:48:35.038Z,8.17
2022-09-11T17:51:06.802Z,7.83
2022-09-11T17:53:41.534Z,7.60
2022-09-11T17:56:14.218Z,6.87
2022-09-11T17:58:42.556Z,6.60
2022-09-11T18:01:12.584Z,7.93
2022-09-11T18:03:41.865Z,8.03
2022-09-11T18:06:24.089Z,7.30
2022-09-11T18:08:51.194Z,7.53
2022-09-11T18:11:18.364Z,6.97
2022-09-11T18:13:45.199Z,7.70
2022-09-11T18:16:12.066Z,8.00
2022-09-11T18:18:39.546Z,7.73
2022-09-11T18:21:10.332Z,7.13
2022-09-11T18:23:42.607Z,7.63
2022-09-11T18:26:19.767Z,11.20
2022-09-11T18:28:47.165Z,6.60
2022-09-11T18:31:14.234Z,7.20
2022-09-11T18:33:41.080Z,7.00
2022-09-11T18:36:08.900Z,6.23
2022-09-11T18:38:37.285Z,8.10
2022-09-11T18:41:04.580Z,7.10
2022-09-11T18:43:31.385Z,6.53
2022-09-11T18:46:02.839Z,7.83
2022-09-11T18:48:29.795Z,6.40
2022-09-11T18:50:57.306Z,5.60
2022-09-11T18:53:25.501Z,7.40
2022-09-11T18:56:02.657Z,7.73
2022-09-11T18:58:35.053Z,8.13
2022-09-11T19:01:14.445Z,7.27
2022-09-11T19:03:42.293Z,6.83
2022-09-11T19:06:20.512Z,6.60
2022-09-11T19:08:48.812Z,7.73
2022-09-11T19:11:17.923Z,7.57
2022-09-11T19:13:45.671Z,10.47
2022-09-11T19:16:14.640Z,6.47
2022-09-11T19:18:42.102Z,6.47
2022-09-11T19:21:15.765Z,7.00
2022-09-11T19:23:44.998Z,6.57
2022-09-11T19:26:22.046Z,6.90
2022-09-11T19:28:50.731Z,6.53
2022-09-11T19:31:24.848Z,6.33
2022-09-11T19:33:53.386Z,6.50
2022-09-11T19:36:22.715Z,6.87
2022-09-11T19:38:51.749Z,6.50
2022-09-11T19:41:23.989Z,6.93
2022-09-11T19:43:50.966Z,7.03
2022-09-11T19:46:24.226Z,7.00
2022-09-11T19:48:56.706Z,6.27
2022-09-11T19:51:27.372Z,7.13
2022-09-11T19:54:00.412Z,9.97
2022-09-11T19:56:28.269Z,9.40
2022-09-11T19:58:55.379Z,7.40
2022-09-11T20:01:24.281Z,7.43
2022-09-11T20:03:55.628Z,8.27
2022-09-11T20:06:25.455Z,6.40
2022-09-11T20:09:08.014Z,6.53
2022-09-11T20:11:40.720Z,6.17
2022-09-11T20:14:07.432Z,8.40
2022-09-11T20:16:34.412Z,6.07
2022-09-11T20:19:06.136Z,6.60
2022-09-11T20:21:35.252Z,7.77
2022-09-11T20:24:02.494Z,8.37
2022-09-11T20:26:30.885Z,11.17
2022-09-11T20:29:04.076Z,9.23
2022-09-11T20:31:36.935Z,8.23
2022-09-11T20:34:07.681Z,7.13
2022-09-11T20:36:34.562Z,6.13
2022-09-11T20:39:01.238Z,6.90
2022-09-11T20:41:30.049Z,7.67
2022-09-11T20:43:59.950Z,8.87
2022-09-11T20:46:27.300Z,7.73
2022-09-11T20:48:54.265Z,9.97
2022-09-11T20:51:22.601Z,7.20
2022-09-11T20:53:49.710Z,7.23
2022-09-11T20:56:20.443Z,7.07
2022-09-11T20:58:47.393Z,7.07
2022-09-11T21:01:17.653Z,8.83
2022-09-11T21:03:46.566Z,8.10
2022-09-11T21:06:13.582Z,8.73
2022-09-11T21:08:42.174Z,5.83
2022-09-11T21:11:09.845Z,7.97
2022-09-11T21:13:38.994Z,8.17
2022-09-11T21:16:08.110Z,8.93
2022-09-11T21:18:35.181Z,9.40
2022-09-11T21:21:02.421Z,6.10
2022-09-11T21:23:29.281Z,9.13
2022-09-11T21:25:56.521Z,7.17
2022-09-11T21:28:23.418Z,7.07
2022-09-11T21:30:50.092Z,7.93
2022-09-11T21:33:16.986Z,7.60
2022-09-11T21:35:43.834Z,7.47
2022-09-11T21:38:10.591Z,6.07
2022-09-11T21:40:37.360Z,5.37
2022-09-11T21:43:04.468Z,7.23
2022-09-11T21:45:31.298Z,8.67
2022-09-11T21:47:58.011Z,7.87
2022-09-11T21:50:24.671Z,7.40
2022-09-11T21:52:52.000Z,6.97
2022-09-11T21:55:18.709Z,6.77
2022-09-11T21:57:45.378Z,7.57
2022-09-11T22:00:12.961Z,7.23
2022-09-11T22:02:40.586Z,7.00
2022-09-11T22:05:07.846Z,7.10
2022-09-11T22:07:34.650Z,8.03
2022-09-11T22:10:02.251Z,10.23
2022-09-11T22:12:29.094Z,6.67
2022-09-11T22:14:55.954Z,6.40
2022-09-11T22:17:22.902Z,8.03
2022-09-11T22:19:49.934Z,7.27
2022-09-11T22:22:17.017Z,7.20
2022-09-11T22:24:43.846Z,7.90
2022-09-11T22:27:11.493Z,9.00
2022-09-11T22:29:38.256Z,8.23
2022-09-11T22:32:05.992Z,8.17
2022-09-11T22:34:34.513Z,8.97
2022-09-11T22:37:02.196Z,7.03
2022-09-11T22:39:31.868Z,6.80
2022-09-11T22:42:01.834Z,7.27
2022-09-11T22:44:28.594Z,7.43
2022-09-11T22:46:55.475Z,9.37
2022-09-11T22:49:22.173Z,5.70
2022-09-11T22:51:49.597Z,8.77
2022-09-11T22:54:16.627Z,10.63
2022-09-11T22:56:43.702Z,6.33
2022-09-11T22:59:10.770Z,6.13
2022-09-11T23:01:38.294Z,7.53
2022-09-11T23:04:05.262Z,6.13
2022-09-11T23:06:50.642Z,7.60
2022-09-11T23:09:17.342Z,8.20
2022-09-11T23:11:46.210Z,8.03
2022-09-11T23:14:14.363Z,8.17
2022-09-11T23:16:42.163Z,8.17
2022-09-11T23:19:11.746Z,6.80
2022-09-11T23:21:38.650Z,7.07
2022-09-11T23:24:06.295Z,6.87
2022-09-11T23:26:33.617Z,6.40
2022-09-11T23:29:00.812Z,6.80
2022-09-11T23:31:33.011Z,6.53
2022-09-11T23:34:06.394Z,7.37
2022-09-11T23:36:35.238Z,7.37
2022-09-11T23:39:02.357Z,7.67
2022-09-11T23:41:29.236Z,6.83
2022-09-11T23:43:56.141Z,7.23
2022-09-11T23:46:23.091Z,6.23
2022-09-11T23:48:49.894Z,5.93
2022-09-11T23:51:16.990Z,7.13
2022-09-11T23:53:45.622Z,6.23
2022-09-11T23:56:14.558Z,7.87
2022-09-11T23:58:42.194Z,10.83
